LFLL/LYS METAR and TAF weather

Enter ICAO airport designator
Station Type Date Time Source
LFLL METAR 2019/07/17 18:30 UTC NOAA

LFLL 171830Z 04006KT CAVOK 28/09 Q1012 NOSIG


Station Type Date Time Source
LFLL Decoded METAR 2019/07/17 18:30 UTC NOAA

Lyon / Satolas, France (LFLL) 45-44N 005-05E 240M
Jul 17, 2019 - 02:30 PM EDT / 2019.07.17 1830 UTC
Wind: from the NE (040 degrees) at 7 MPH (6 KT):0
Visibility: greater than 7 mile(s):0
Temperature: 82 F (28 C)
Dew Point: 48 F (9 C)
Relative Humidity: 30%
Pressure (altimeter): 29.88 in. Hg (1012 hPa)
ob: LFLL 171830Z 04006KT CAVOK 28/09 Q1012 NOSIG
cycle: 18

Station Type Date Time Source
LFLL TAF 2019/07/17 18:21 UTC NOAA

TAF LFLL 171700Z 1718/1824 36008KT CAVOK
TEMPO 1800/1806 VRB02KT

Example: see airport list